ADDS METAR Data INFO
IDs: Format: Raw Decoded Include TAF

Data at: 0101 UTC 24 Aug 2017

KJSO 240055Z AUTO 36004KT 7SM -VCTSRA SCT016 BKN024 OVC046 23/22 A2994 RMK AO2 LTG DSNT ALQS P0027 T02320220
KJSO 240035Z AUTO 03010G16KT 2 1/2SM TSRA SCT015 BKN022 OVC029 22/22 A2993 RMK AO2 VIS 1 1/2V4 LTG DSNT ALQS P0023 T02300224
KJSO 240015Z AUTO 05014G17KT 3SM +TSRA SCT020 BKN046 OVC070 23/21 A2994 RMK AO2 LTG DSNT ALQS P0008 T02400217
KJSO 232355Z AUTO 03006KT 10SM TS SCT050 BKN070 BKN110 31/22 A2991 RMK AO2 LTG DSNT ALQS T03180225
KJSO 232335Z AUTO 08003KT 10SM VCTS SCT050 SCT085 BKN110 32/22 A2991 RMK AO2 LTG DSNT SW T03250222
KJSO 232315Z AUTO 09007KT 10SM BKN050 33/22 A2991 RMK AO2 LTG DSNT SW AND NW T03320220
KJSO 232255Z AUTO 04005KT 10SM SCT050 33/21 A2990 RMK AO2 LTG DSNT SW THRU N T03360209
KJSO 232235Z AUTO 03007KT 10SM SCT050 33/22 A2989 RMK AO2 LTG DSNT N AND SW T03350220
KJSO 232215Z AUTO 02004KT 10SM CLR 33/21 A2991 RMK AO2 LTG DSNT N SE AND NW T03350219
KJSO 232155Z AUTO 03005KT 10SM CLR 33/21 A2991 RMK AO2 LTG DSNT N T03380216
KJSO 232135Z AUTO 01004KT 10SM CLR 33/20 A2992 RMK AO2 T03360207
KJSO 232115Z AUTO 01006KT 10SM CLR 33/21 A2992 RMK AO2 T03390208
KJSO 232055Z AUTO 06004KT 10SM CLR 33/21 A2993 RMK AO2 T03410214
KJSO 232035Z AUTO 00000KT 10SM CLR 33/21 A2994 RMK AO2 T03360209
KJSO 232015Z AUTO 02003KT 10SM CLR 33/21 A2995 RMK AO2 LTG DSNT E T03330215
KJSO 231955Z AUTO 06006KT 10SM SCT045 33/21 A2996 RMK AO2 T03320214
KJSO 231935Z AUTO 04005KT 10SM SCT045 32/21 A2997 RMK AO2 LTG DSNT E T03300216
KJSO 231915Z AUTO 02003KT 10SM CLR 32/21 A2998 RMK AO2 LTG DSNT E T03280219
KJSO 231855Z AUTO 00000KT 10SM CLR 31/22 A2999 RMK AO2 T03170222
KJSO 231835Z AUTO 06005KT 10SM CLR 32/23 A3000 RMK AO2 LTG DSNT SE T03240231
KJSO 231815Z AUTO 05005KT 10SM CLR 31/23 A3000 RMK AO2 T03180234
KJSO 231755Z AUTO 35004KT 10SM SCT029 SCT085 31/23 A3002 RMK AO2 T03150234
KJSO 231735Z AUTO 36005KT 10SM CLR 31/23 A3003 RMK AO2 T03140237
KJSO 231715Z AUTO 05004KT 10SM CLR 31/23 A3003 RMK AO2 T03110234
KJSO 231655Z AUTO 33004KT 10SM CLR 30/22 A3003 RMK AO2 T03050230
KJSO 231635Z AUTO 00000KT 10SM CLR 30/22 A3003 RMK AO2 T03030228
KJSO 231615Z AUTO 00000KT 10SM CLR 30/22 A3004 RMK AO2 T03000228
KJSO 231555Z AUTO 00000KT 10SM CLR 29/23 A3004 RMK AO2 T02920231
KJSO 231535Z AUTO 35004KT 10SM CLR 29/23 A3005 RMK AO2 T02930231
KJSO 231515Z AUTO 29003KT 10SM CLR 28/22 A3005 RMK AO2 T02870225
KJSO 231455Z AUTO 28004KT 10SM CLR 28/22 A3005 RMK AO2 T02810225
KJSO 231435Z AUTO 30004KT 10SM CLR 27/22 A3005 RMK AO2 T02800228
KJSO 231415Z AUTO 25003KT 10SM CLR 27/23 A3005 RMK AO2 T02710231
KJSO 231355Z AUTO 23004KT 10SM CLR 26/22 A3004 RMK AO2 T02640230
KJSO 231335Z AUTO 21003KT 10SM CLR 25/22 A3004 RMK AO2 T02580226
KJSO 231315Z AUTO 00000KT 10SM SCT055 SCT065 25/22 A3004 RMK AO2 T02480227
KJSO 231255Z AUTO 00000KT 10SM SCT055 BKN065 24/22 A3004 RMK AO2 T02450227
KJSO 231235Z AUTO 00000KT 10SM SCT065 23/22 A3005 RMK AO2 T02350225
KJSO 231215Z AUTO 00000KT 10SM SCT065 23/22 A3005 RMK AO2 T02350225
KJSO 231155Z AUTO 00000KT 10SM CLR 23/22 A3004 RMK AO2 T02360225
KJSO 231135Z AUTO 00000KT 10SM CLR 23/22 A3004 RMK AO2 T02400225
KJSO 231115Z AUTO 00000KT 10SM CLR 23/22 A3003 RMK AO2 T02400225
KJSO 231055Z AUTO 00000KT 10SM CLR 23/22 A3003 RMK AO2 T02400226
KJSO 231035Z AUTO 19003KT 10SM CLR 23/22 A3002 RMK AO2 T02400226
KJSO 231015Z AUTO 20003KT 10SM CLR 23/22 A3002 RMK AO2 T02400228
KJSO 230955Z AUTO 20003KT 10SM CLR 24/22 A3003 RMK AO2 T02450228
KJSO 230935Z AUTO 20003KT 10SM CLR 25/22 A3002 RMK AO2 T02470228
KJSO 230915Z AUTO 20003KT 10SM CLR 25/22 A3002 RMK AO2 T02470228
KJSO 230855Z AUTO 20003KT 10SM CLR 24/22 A3002 RMK AO2 T02460230
KJSO 230835Z AUTO 19004KT 10SM CLR 25/22 A3002 RMK AO2 T02470230
KJSO 230815Z AUTO 20004KT 10SM CLR 25/22 A3003 RMK AO2 T02490230
KJSO 230755Z AUTO 20004KT 10SM CLR 25/22 A3003 RMK AO2 T02490230
KJSO 230735Z AUTO 20004KT 10SM CLR 25/22 A3003 RMK AO2 T02520230
KJSO 230715Z AUTO 18005KT 10SM CLR 25/22 A3003 RMK AO2 T02520230
KJSO 230655Z AUTO 17005KT 10SM CLR 25/22 A3003 RMK AO2 T02490229
KJSO 230635Z AUTO 18005KT 10SM CLR 25/22 A3004 RMK AO2 T02510229
KJSO 230615Z AUTO 19004KT 10SM CLR 25/22 A3003 RMK AO2 T02520230
KJSO 230555Z AUTO 17007KT 10SM CLR 25/22 A3004 RMK AO2 T02550230
KJSO 230535Z AUTO 18005KT 10SM CLR 26/22 A3004 RMK AO2 T02600226
KJSO 230515Z AUTO 18005KT 10SM CLR 26/22 A3004 RMK AO2 T02620225
KJSO 230455Z AUTO 16004KT 10SM CLR 26/22 A3004 RMK AO2 T02630223
KJSO 230435Z AUTO 16003KT 10SM CLR 26/22 A3004 RMK AO2 T02660220
KJSO 230415Z AUTO 15003KT 10SM CLR 26/21 A3003 RMK AO2 T02680218
KJSO 230355Z AUTO 15003KT 10SM CLR 27/21 A3003 RMK AO2 T02710215
KJSO 230335Z AUTO 15003KT 10SM CLR 27/21 A3002 RMK AO2 T02750212
KJSO 230315Z AUTO 00000KT 10SM CLR 27/21 A3002 RMK AO2 T02750211
KJSO 230255Z AUTO 00000KT 10SM CLR 27/21 A3001 RMK AO2 T02740212
KJSO 230235Z AUTO 00000KT 10SM CLR 27/21 A3001 RMK AO2 T02800212
KJSO 230215Z AUTO 00000KT 10SM CLR 28/21 A3002 RMK AO2 T02850214
KJSO 230155Z AUTO 00000KT 10SM CLR 28/21 A3001 RMK AO2 T02900215
KJSO 230135Z AUTO 00000KT 10SM CLR 29/21 A3002 RMK AO2 T02950213
KJSO 230115Z AUTO 00000KT 10SM CLR 30/21 A3001 RMK AO2 T02990212
KJSO 230055Z AUTO 00000KT 10SM CLR 30/21 A3001 RMK AO2 T03060214
KJSO 230040Z AUTO 00000KT 10SM CLR 31/21 A3001 RMK AO2 T03110215
KJSO 230015Z AUTO 12003KT 10SM CLR 32/21 A3001 RMK AO2 T03200210
KJSO 222355Z AUTO 10003KT 10SM CLR 32/21 A3001 RMK AO2 T03260216
KJSO 222335Z AUTO 11003KT 10SM CLR 32/21 A3001 RMK AO2 T03300212
KJSO 222315Z AUTO 12003KT 10SM CLR 33/21 A3002 RMK AO2 T03330211
KJSO 222255Z AUTO 15003KT 10SM CLR 33/21 A3002 RMK AO2 T03370216
KJSO 222235Z AUTO 00000KT 10SM CLR 33/21 A3002 RMK AO2 T03360213
KJSO 222215Z AUTO 00000KT 10SM SCT055 32/21 A3003 RMK AO2 T03230216
KJSO 222155Z AUTO 13003KT 10SM SCT055 SCT075 34/21 A3003 RMK AO2 T03440212
KJSO 222135Z AUTO 00000KT 10SM SCT055 SCT075 33/20 A3004 RMK AO2 T03320205
KJSO 222115Z AUTO 15003KT 10SM CLR 33/20 A3005 RMK AO2 T03410207
KJSO 222055Z AUTO 00000KT 10SM CLR 33/21 A3005 RMK AO2 T03340213
KJSO 222035Z AUTO 11004KT 10SM CLR 33/21 A3006 RMK AO2 T03380213
KJSO 222015Z AUTO 10003KT 10SM SCT050 33/21 A3006 RMK AO2 T03330211
KJSO 221955Z AUTO 05003KT 10SM BKN050 32/21 A3008 RMK AO2 T03250213
KJSO 221935Z AUTO 00000KT 10SM BKN048 BKN050 32/21 A3008 RMK AO2 T03200212
KJSO 221915Z AUTO 07003KT 10SM BKN046 BKN050 32/21 A3008 RMK AO2 T03280212
KJSO 221855Z AUTO 00000KT 10SM SCT044 BKN050 32/21 A3009 RMK AO2 T03270218
KJSO 221835Z AUTO 24003KT 10SM CLR 32/21 A3009 RMK AO2 T03240218
KJSO 221815Z AUTO 00000KT 10SM CLR 31/21 A3010 RMK AO2 T03160219
KJSO 221755Z AUTO 00000KT 10SM CLR 31/21 A3011 RMK AO2 T03160215
KJSO 221735Z AUTO 32004KT 10SM CLR 31/21 A3011 RMK AO2 T03100213
KJSO 221715Z AUTO 00000KT 10SM SCT034 31/22 A3012 RMK AO2 T03110221
KJSO 221655Z AUTO 18004KT 10SM CLR 31/21 A3012 RMK AO2 T03090219
KJSO 221635Z AUTO 28004KT 10SM CLR 30/21 A3012 RMK AO2 T03040218
KJSO 221615Z AUTO 24004KT 10SM CLR 30/21 A3013 RMK AO2 T03000216
KJSO 221555Z AUTO 24004KT 10SM CLR 29/22 A3013 RMK AO2 T02950221
KJSO 221535Z AUTO 28003KT 10SM CLR 29/22 A3013 RMK AO2 T02920230
KJSO 221515Z AUTO 26005KT 10SM CLR 28/23 A3012 RMK AO2 T02840234
KJSO 221455Z AUTO 26006KT 10SM CLR 28/23 A3012 RMK AO2 T02810236
KJSO 221435Z AUTO 24005KT 10SM CLR 27/23 A3012 RMK AO2 T02760240
KJSO 221415Z AUTO 23004KT 10SM CLR 27/23 A3011 RMK AO2 T02700240
KJSO 221355Z AUTO 24003KT 10SM CLR 26/23 A3011 RMK AO2 T02610241
KJSO 221335Z AUTO 20003KT 10SM CLR 25/23 A3011 RMK AO2 T02550238
KJSO 221315Z AUTO 00000KT 10SM CLR 25/23 A3010 RMK AO2 T02490237